sensor_id;sensor_type;location;lat;lon;timestamp;pressure;altitude;pressure_sealevel;temperature;humidity
9235;BME280;4652;42.716;23.218;2023-01-01T00:01:44;96292.28;;;2.12;100.00
9235;BME280;4652;42.716;23.218;2023-01-01T00:08:26;96289.59;;;2.12;100.00
9235;BME280;4652;42.716;23.218;2023-01-01T00:15:10;96302.50;;;2.22;100.00
9235;BME280;4652;42.716;23.218;2023-01-01T00:21:52;96304.44;;;1.94;100.00
9235;BME280;4652;42.716;23.218;2023-01-01T00:28:34;96298.56;;;1.98;100.00
9235;BME280;4652;42.716;23.218;2023-01-01T00:35:18;96306.00;;;1.75;100.00
9235;BME280;4652;42.716;23.218;2023-01-01T00:42:00;96309.34;;;1.49;100.00
9235;BME280;4652;42.716;23.218;2023-01-01T00:48:42;96324.88;;;1.18;100.00
9235;BME280;4652;42.716;23.218;2023-01-01T00:55:25;96329.06;;;1.34;100.00
9235;BME280;4652;42.716;23.218;2023-01-01T01:02:07;96319.44;;;1.26;100.00
9235;BME280;4652;42.716;23.218;2023-01-01T01:08:49;96312.19;;;1.13;100.00
9235;BME280;4652;42.716;23.218;2023-01-01T01:15:33;96309.22;;;1.23;100.00
9235;BME280;4652;42.716;23.218;2023-01-01T01:22:15;96288.09;;;1.08;100.00
9235;BME280;4652;42.716;23.218;2023-01-01T01:28:58;96258.78;;;0.89;100.00
9235;BME280;4652;42.716;23.218;2023-01-01T01:35:41;96308.16;;;1.17;100.00
9235;BME280;4652;42.716;23.218;2023-01-01T01:42:23;96303.84;;;1.16;100.00
9235;BME280;4652;42.716;23.218;2023-01-01T01:49:12;96287.84;;;1.03;100.00
9235;BME280;4652;42.716;23.218;2023-01-01T01:55:59;96316.34;;;0.95;100.00
9235;BME280;4652;42.716;23.218;2023-01-01T08:08:18;96318.59;;;14.25;57.04
9235;BME280;4652;42.716;23.218;2023-01-01T08:15:00;96324.03;;;14.35;55.26
9235;BME280;4652;42.716;23.218;2023-01-01T08:21:43;96331.06;;;14.26;55.58
9235;BME280;4652;42.716;23.218;2023-01-01T08:28:27;96343.97;;;12.73;57.90
9235;BME280;4652;42.716;23.218;2023-01-01T08:35:09;96340.53;;;12.30;60.27
9235;BME280;4652;42.716;23.218;2023-01-01T08:41:52;96335.25;;;12.56;59.78
9235;BME280;4652;42.716;23.218;2023-01-01T08:48:36;96345.22;;;14.08;57.19
9235;BME280;4652;42.716;23.218;2023-01-01T08:55:18;96347.63;;;12.47;60.79
9235;BME280;4652;42.716;23.218;2023-01-01T09:02:00;96340.53;;;10.28;68.91
9235;BME280;4652;42.716;23.218;2023-01-01T09:08:44;96337.84;;;8.78;90.84
9235;BME280;4652;42.716;23.218;2023-01-01T09:15:26;96337.16;;;7.68;100.00
9235;BME280;4652;42.716;23.218;2023-01-01T09:22:08;96320.13;;;7.51;100.00
9235;BME280;4652;42.716;23.218;2023-01-01T09:28:53;96309.28;;;7.46;100.00
9235;BME280;4652;42.716;23.218;2023-01-01T09:35:35;96300.72;;;8.07;100.00
9235;BME280;4652;42.716;23.218;2023-01-01T09:42:26;96299.59;;;8.43;100.00
9235;BME280;4652;42.716;23.218;2023-01-01T09:49:18;96291.28;;;8.73;100.00
9235;BME280;4652;42.716;23.218;2023-01-01T09:56:05;96286.13;;;8.83;100.00
9235;BME280;4652;42.716;23.218;2023-01-01T10:03:09;96266.56;;;8.88;100.00
9235;BME280;4652;42.716;23.218;2023-01-01T10:10:02;96282.19;;;8.74;100.00
9235;BME280;4652;42.716;23.218;2023-01-01T10:16:50;96260.34;;;8.70;100.00
9235;BME280;4652;42.716;23.218;2023-01-01T10:23:41;96270.31;;;8.86;100.00
9235;BME280;4652;42.716;23.218;2023-01-01T14:52:08;96127.25;;;9.99;100.00
9235;BME280;4652;42.716;23.218;2023-01-01T14:59:03;96077.19;;;9.07;100.00
9235;BME280;4652;42.716;23.218;2023-01-01T15:05:57;96135.50;;;9.06;100.00
9235;BME280;4652;42.716;23.218;2023-01-01T15:12:41;96143.69;;;8.61;100.00
9235;BME280;4652;42.716;23.218;2023-01-01T15:19:23;96155.81;;;8.19;100.00
9235;BME280;4652;42.716;23.218;2023-01-01T15:26:07;96130.03;;;7.61;100.00
9235;BME280;4652;42.716;23.218;2023-01-01T15:32:51;96156.91;;;7.38;100.00
9235;BME280;4652;42.716;23.218;2023-01-01T15:39:44;96153.59;;;6.85;100.00
9235;BME280;4652;42.716;23.218;2023-01-01T15:46:27;96170.44;;;6.62;100.00
9235;BME280;4652;42.716;23.218;2023-01-01T15:53:14;96170.47;;;6.32;100.00
9235;BME280;4652;42.716;23.218;2023-01-01T16:00:00;96150.63;;;5.99;100.00
9235;BME280;4652;42.716;23.218;2023-01-01T16:06:43;96189.97;;;6.10;100.00
9235;BME280;4652;42.716;23.218;2023-01-01T16:13:27;96167.22;;;5.71;100.00
9235;BME280;4652;42.716;23.218;2023-01-01T16:20:13;96184.78;;;5.49;100.00
9235;BME280;4652;42.716;23.218;2023-01-01T16:26:56;96182.31;;;5.29;100.00
9235;BME280;4652;42.716;23.218;2023-01-01T16:33:39;96167.28;;;5.16;100.00
9235;BME280;4652;42.716;23.218;2023-01-01T16:40:22;96186.47;;;5.07;100.00
9235;BME280;4652;42.716;23.218;2023-01-01T16:47:05;96211.25;;;4.89;100.00
9235;BME280;4652;42.716;23.218;2023-01-01T16:53:49;96205.34;;;4.87;100.00
9235;BME280;4652;42.716;23.218;2023-01-01T17:00:30;96213.47;;;4.74;100.00
9235;BME280;4652;42.716;23.218;2023-01-01T17:07:12;96172.25;;;4.45;100.00
9235;BME280;4652;42.716;23.218;2023-01-01T17:13:56;96220.66;;;4.49;100.00
9235;BME280;4652;42.716;23.218;2023-01-01T17:20:39;96215.41;;;4.36;100.00
9235;BME280;4652;42.716;23.218;2023-01-01T17:27:21;96230.78;;;4.34;100.00
9235;BME280;4652;42.716;23.218;2023-01-01T17:34:05;96235.53;;;4.32;100.00
9235;BME280;4652;42.716;23.218;2023-01-01T17:40:47;96243.38;;;4.20;100.00
9235;BME280;4652;42.716;23.218;2023-01-01T17:47:29;96242.19;;;4.16;100.00
9235;BME280;4652;42.716;23.218;2023-01-01T17:54:13;96245.47;;;4.11;100.00
9235;BME280;4652;42.716;23.218;2023-01-01T18:01:05;96205.59;;;3.61;100.00
9235;BME280;4652;42.716;23.218;2023-01-01T18:07:52;96265.13;;;3.79;100.00
9235;BME280;4652;42.716;23.218;2023-01-01T18:14:35;96254.66;;;3.84;100.00
9235;BME280;4652;42.716;23.218;2023-01-01T18:21:19;96248.53;;;3.77;100.00
9235;BME280;4652;42.716;23.218;2023-01-01T18:28:03;96247.94;;;3.75;100.00
9235;BME280;4652;42.716;23.218;2023-01-01T18:34:47;96240.38;;;3.72;100.00
9235;BME280;4652;42.716;23.218;2023-01-01T18:41:42;96259.44;;;3.69;100.00
9235;BME280;4652;42.716;23.218;2023-01-01T18:48:27;96242.53;;;3.44;100.00
9235;BME280;4652;42.716;23.218;2023-01-01T18:55:13;96188.59;;;2.97;100.00
9235;BME280;4652;42.716;23.218;2023-01-01T19:01:57;96228.63;;;3.29;100.00
9235;BME280;4652;42.716;23.218;2023-01-01T19:08:39;96240.91;;;3.30;100.00
9235;BME280;4652;42.716;23.218;2023-01-01T19:15:24;96246.09;;;3.12;100.00
9235;BME280;4652;42.716;23.218;2023-01-01T19:22:21;96223.97;;;3.11;100.00
9235;BME280;4652;42.716;23.218;2023-01-01T19:29:10;96252.22;;;3.06;100.00
9235;BME280;4652;42.716;23.218;2023-01-01T19:35:55;96255.31;;;3.03;100.00
9235;BME280;4652;42.716;23.218;2023-01-01T19:42:37;96258.16;;;3.01;100.00
9235;BME280;4652;42.716;23.218;2023-01-01T19:49:19;96258.16;;;3.01;100.00
9235;BME280;4652;42.716;23.218;2023-01-01T19:56:02;96255.31;;;2.89;100.00
9235;BME280;4652;42.716;23.218;2023-01-01T20:08:18;96254.72;;;2.68;100.00
9235;BME280;4652;42.716;23.218;2023-01-01T20:15:01;96267.59;;;2.71;100.00
9235;BME280;4652;42.716;23.218;2023-01-01T20:21:43;96267.59;;;2.77;100.00
9235;BME280;4652;42.716;23.218;2023-01-01T20:28:45;96269.22;;;2.65;100.00
9235;BME280;4652;42.716;23.218;2023-01-01T20:35:44;96268.00;;;2.61;100.00
9235;BME280;4652;42.716;23.218;2023-01-01T20:42:43;96278.63;;;2.48;100.00
9235;BME280;4652;42.716;23.218;2023-01-01T20:49:27;96284.56;;;2.50;100.00
9235;BME280;4652;42.716;23.218;2023-01-01T20:56:09;96196.19;;;1.96;100.00
9235;BME280;4652;42.716;23.218;2023-01-01T21:02:51;96266.75;;;2.44;100.00
9235;BME280;4652;42.716;23.218;2023-01-01T21:09:35;96279.88;;;2.59;100.00
9235;BME280;4652;42.716;23.218;2023-01-01T21:16:19;96288.66;;;2.59;100.00
9235;BME280;4652;42.716;23.218;2023-01-01T21:23:08;96286.41;;;2.50;100.00
9235;BME280;4652;42.716;23.218;2023-01-01T21:29:55;96293.56;;;2.43;100.00
9235;BME280;4652;42.716;23.218;2023-01-01T21:36:38;96285.53;;;2.29;100.00
9235;BME280;4652;42.716;23.218;2023-01-01T21:43:32;96277.34;;;2.24;100.00
9235;BME280;4652;42.716;23.218;2023-01-01T21:50:21;96284.28;;;2.06;100.00
9235;BME280;4652;42.716;23.218;2023-01-01T21:57:13;96276.97;;;2.21;100.00
9235;BME280;4652;42.716;23.218;2023-01-01T22:04:02;96284.75;;;2.29;100.00
9235;BME280;4652;42.716;23.218;2023-01-01T22:10:48;96281.25;;;2.28;100.00
9235;BME280;4652;42.716;23.218;2023-01-01T22:17:33;96249.13;;;2.10;100.00
9235;BME280;4652;42.716;23.218;2023-01-01T22:24:29;96239.44;;;1.76;100.00
9235;BME280;4652;42.716;23.218;2023-01-01T22:31:21;96225.09;;;1.64;100.00
9235;BME280;4652;42.716;23.218;2023-01-01T22:38:05;96270.09;;;1.86;100.00
9235;BME280;4652;42.716;23.218;2023-01-01T22:44:54;96274.94;;;1.62;100.00
9235;BME280;4652;42.716;23.218;2023-01-01T22:51:40;96272.41;;;1.48;100.00
9235;BME280;4652;42.716;23.218;2023-01-01T22:58:22;96273.78;;;1.44;100.00
9235;BME280;4652;42.716;23.218;2023-01-01T23:05:05;96269.34;;;1.51;100.00
9235;BME280;4652;42.716;23.218;2023-01-01T23:11:49;96270.56;;;1.48;100.00
9235;BME280;4652;42.716;23.218;2023-01-01T23:18:32;96265.66;;;1.45;100.00
9235;BME280;4652;42.716;23.218;2023-01-01T23:25:16;96259.03;;;1.28;100.00
9235;BME280;4652;42.716;23.218;2023-01-01T23:32:02;96256.59;;;1.33;100.00
9235;BME280;4652;42.716;23.218;2023-01-01T23:38:44;96258.59;;;1.25;100.00
9235;BME280;4652;42.716;23.218;2023-01-01T23:45:26;96255.22;;;1.37;100.00
9235;BME280;4652;42.716;23.218;2023-01-01T23:52:10;96254.16;;;1.32;100.00
9235;BME280;4652;42.716;23.218;2023-01-01T23:58:52;96256.81;;;1.38;100.00
